Terminal Aerodrome Forecast
Issued by NWS Charleston, WV

Current Version | Previous Version | Graphics & Text | Print | Product List | Glossary On
Versions: 1 2 3 4 5 6 7 8 9 10 11 12 13 14 15 16 17 18 19 20 21 22 23
000
FTUS41 KRLX 231120
TAFEKN
TAF
KEKN 231120Z 2312/2412 00000KT 1SM BR BKN001
     FM231300 00000KT 4SM BR SCT002
     FM231400 25004KT P6SM SCT050
     FM232300 00000KT P6SM SKC
     FM240700 00000KT 4SM BR SCT200
     FM240800 00000KT 2SM BR SCT001
     FM241000 00000KT 1/4SM FG VV001=

USA.gov is the U.S. government's official web portal to all federal, state and local government web resources and services.